Time;durP1;ratioP1;P1;durP2;ratioP2;P2;SDS_P1;SDS_P2;PMS_P1;PMS_P2;Temp;Humidity;BMP_temperature;BMP_pressure;BME280_temperature;BME280_humidity;BME280_pressure;Samples;Min_cycle;Max_cycle;Signal;HPM_P1;HPM_P2
2022/08/12 00:44:43;;;;;;;6.00;5.40;;;17.80;99.90;;;;;;5000401;28;88411;-31
2022/08/12 00:47:11;;;;;;;5.25;4.75;;;17.80;99.90;;;;;;5000711;28;89284;-29
2022/08/12 00:49:37;;;;;;;8.73;7.13;;;17.70;99.90;;;;;;5000381;28;89770;-36
2022/08/12 00:52:05;;;;;;;6.28;5.60;;;17.70;99.90;;;;;;5000461;28;89588;-32
2022/08/12 00:54:35;;;;;;;8.25;5.72;;;17.60;99.90;;;;;;5000527;28;89416;-33
2022/08/12 00:57:06;;;;;;;8.52;6.10;;;17.60;99.90;;;;;;5000352;28;90201;-33
2022/08/12 00:59:33;;;;;;;7.30;6.35;;;17.60;99.90;;;;;;5000927;28;90385;-35
2022/08/12 01:02:03;;;;;;;11.93;6.13;;;17.50;99.90;;;;;;4997903;28;91187;-33
2022/08/12 01:12:45;;;;;;;6.53;5.95;;;17.40;99.90;;;;;;5000252;28;91566;-35
2022/08/12 01:15:12;;;;;;;12.13;6.43;;;17.40;99.90;;;;;;5000427;28;88912;-36
2022/08/12 01:17:43;;;;;;;7.77;6.27;;;17.40;99.90;;;;;;4999745;28;89297;-33
2022/08/12 01:20:16;;;;;;;7.32;6.20;;;17.30;99.90;;;;;;5000311;28;89924;-36
2022/08/12 01:23:09;;;;;;;8.05;5.75;;;17.30;99.90;;;;;;4999249;28;89576;-35
2022/08/12 01:25:39;;;;;;;7.88;5.95;;;17.40;99.90;;;;;;5000928;28;88695;-33
2022/08/12 01:28:09;;;;;;;7.70;5.88;;;17.30;99.90;;;;;;5000335;28;90379;-36
2022/08/12 01:30:38;;;;;;;8.48;6.57;;;17.30;99.90;;;;;;4999537;28;89681;-36
2022/08/12 01:33:11;;;;;;;7.50;6.10;;;17.30;99.90;;;;;;4999485;28;88772;-33
2022/08/12 01:35:39;;;;;;;7.68;6.22;;;17.30;99.90;;;;;;5000178;28;90405;-30
2022/08/12 01:38:09;;;;;;;7.07;6.13;;;17.30;99.90;;;;;;5000141;28;89234;-32
2022/08/12 01:40:37;;;;;;;12.88;6.95;;;17.30;99.90;;;;;;4999289;28;89740;-31
2022/08/12 01:43:08;;;;;;;9.98;6.57;;;17.20;99.90;;;;;;4999985;28;89872;-36
2022/08/12 01:45:43;;;;;;;8.30;6.60;;;17.20;99.90;;;;;;4999578;28;89815;-35
2022/08/12 01:48:38;;;;;;;7.53;6.82;;;17.10;99.90;;;;;;5000469;28;88852;-31
2022/08/12 01:51:20;;;;;;;7.35;6.35;;;17.20;99.90;;;;;;4989794;28;89750;-33
2022/08/12 01:54:00;;;;;;;8.50;7.63;;;17.10;99.90;;;;;;5000211;28;89894;-30
2022/08/12 01:56:33;;;;;;;7.97;7.25;;;17.10;99.90;;;;;;5000466;28;90052;-31
2022/08/12 02:01:50;;;;;;;12.70;7.60;;;17.00;99.90;;;;;;4999253;28;90292;-33
2022/08/12 02:13:21;;;;;;;9.98;8.57;;;17.00;99.90;;;;;;4999267;28;89912;-31
2022/08/12 02:16:02;;;;;;;10.07;9.18;;;16.90;99.90;;;;;;4999487;28;89814;-35
2022/08/12 02:19:10;;;;;;;8.00;7.28;;;17.00;99.90;;;;;;4999221;28;88418;-31
2022/08/12 02:21:45;;;;;;;9.73;8.77;;;16.80;99.90;;;;;;4981895;28;90891;-32
2022/08/12 02:24:18;;;;;;;9.93;8.93;;;16.80;99.90;;;;;;4999574;28;89806;-33
2022/08/12 02:26:47;;;;;;;10.00;8.20;;;16.80;99.90;;;;;;4998605;28;88205;-30
2022/08/12 02:29:13;;;;;;;8.50;7.70;;;16.80;99.90;;;;;;4997137;28;89587;-30
2022/08/12 02:31:44;;;;;;;9.73;8.82;;;16.70;99.90;;;;;;4999653;28;90316;-34
2022/08/12 02:34:13;;;;;;;10.80;9.05;;;16.70;99.90;;;;;;4999368;28;89998;-35
2022/08/12 02:36:39;;;;;;;9.25;7.78;;;16.70;99.90;;;;;;4999701;28;89766;-34
2022/08/12 02:39:08;;;;;;;9.70;8.70;;;16.60;99.90;;;;;;4999181;28;90453;-31
2022/08/12 02:41:40;;;;;;;10.32;9.32;;;16.60;99.90;;;;;;4998990;28;90224;-32
2022/08/12 02:44:13;;;;;;;12.15;8.75;;;16.60;99.90;;;;;;4999659;28;89739;-30
2022/08/12 02:46:42;;;;;;;10.00;8.23;;;16.60;99.90;;;;;;4998469;28;90132;-34
2022/08/12 02:49:40;;;;;;;9.50;8.68;;;16.50;99.90;;;;;;4999194;28;88864;-31
2022/08/12 02:52:06;;;;;;;8.40;7.60;;;16.50;99.90;;;;;;4986584;28;90542;-30
2022/08/12 02:54:33;;;;;;;15.20;9.57;;;16.50;99.90;;;;;;4998268;28;90017;-30
2022/08/12 02:57:00;;;;;;;10.00;8.73;;;16.50;99.90;;;;;;4998124;28;90897;-34
2022/08/12 02:59:26;;;;;;;9.57;8.40;;;16.40;99.90;;;;;;4999034;28;88568;-30
2022/08/12 03:02:02;;;;;;;8.70;7.80;;;16.40;99.90;;;;;;4998839;28;90337;-33
2022/08/12 03:04:36;;;;;;;10.00;9.10;;;16.30;99.90;;;;;;4998080;28;90422;-31
2022/08/12 03:07:15;;;;;;;11.50;10.23;;;16.30;99.90;;;;;;4999135;28;89726;-30
2022/08/12 03:09:54;;;;;;;9.18;8.35;;;16.30;99.90;;;;;;4998613;28;89540;-31
2022/08/12 03:12:23;;;;;;;11.18;10.10;;;16.20;99.90;;;;;;4998705;28;90213;-30
2022/08/12 03:14:51;;;;;;;11.25;9.63;;;16.20;99.90;;;;;;5001210;28;89591;-31
2022/08/12 03:17:26;;;;;;;14.80;9.65;;;16.20;99.90;;;;;;5002006;28;89661;-31
2022/08/12 03:19:53;;;;;;;10.93;8.82;;;16.20;99.90;;;;;;5001562;28;89891;-30
2022/08/12 03:22:22;;;;;;;10.20;9.10;;;16.20;99.90;;;;;;5001157;28;90186;-35
2022/08/12 03:24:49;;;;;;;9.75;8.93;;;16.20;99.90;;;;;;5002392;28;90175;-32
2022/08/12 03:27:15;;;;;;;9.45;8.63;;;16.20;99.90;;;;;;5001766;28;89648;-34
2022/08/12 03:29:46;;;;;;;10.07;9.27;;;16.20;99.90;;;;;;5002371;28;89355;-32
2022/08/12 03:32:13;;;;;;;11.25;10.00;;;16.20;99.90;;;;;;5001691;28;90435;-33
2022/08/12 03:34:40;;;;;;;11.73;9.80;;;16.20;99.90;;;;;;5000905;28;90555;-33
2022/08/12 03:37:07;;;;;;;10.65;9.68;;;16.20;99.90;;;;;;5002423;28;89689;-34
2022/08/12 03:42:37;;;;;;;11.68;9.68;;;16.10;99.90;;;;;;5002039;28;90325;-33
2022/08/12 04:01:57;;;;;;;10.60;9.55;;;16.10;99.90;;;;;;5000735;28;89960;-31
2022/08/12 04:04:32;;;;;;;9.93;9.02;;;16.00;99.90;;;;;;5000981;28;89963;-33
2022/08/12 04:07:00;;;;;;;14.10;10.32;;;16.10;99.90;;;;;;5001228;28;89981;-30
2022/08/12 04:09:26;;;;;;;11.35;10.25;;;16.10;99.90;;;;;;5000262;28;89141;-29
2022/08/12 04:14:36;;;;;;;11.80;10.32;;;16.00;99.90;;;;;;5000378;28;89499;-33
2022/08/12 04:17:03;;;;;;;13.57;12.27;;;16.00;99.90;;;;;;5000842;28;89798;-31
2022/08/12 04:19:29;;;;;;;11.93;10.77;;;16.00;99.90;;;;;;5000479;28;89572;-32
2022/08/12 04:21:55;;;;;;;11.68;10.57;;;16.00;99.90;;;;;;5000358;28;88825;-34
2022/08/12 04:24:24;;;;;;;12.13;10.88;;;16.00;99.90;;;;;;5000423;28;90113;-30
2022/08/12 04:26:49;;;;;;;;;;;16.00;99.90;;;;;;5000681;28;89342;-31
2022/08/12 04:29:15;;;;;;;11.77;10.70;;;16.00;99.90;;;;;;5002475;28;89241;-33
2022/08/12 04:31:42;;;;;;;11.95;10.35;;;16.00;99.90;;;;;;5000525;28;88285;-31
2022/08/12 04:34:10;;;;;;;18.50;10.93;;;16.00;99.90;;;;;;5000551;28;90924;-31
2022/08/12 04:36:37;;;;;;;10.70;9.43;;;16.00;99.90;;;;;;5000080;28;90468;-30
2022/08/12 04:39:05;;;;;;;12.82;11.63;;;16.00;99.90;;;;;;5000802;28;90443;-33
2022/08/12 04:41:31;;;;;;;11.77;10.60;;;16.10;99.90;;;;;;4999864;28;89570;-33
2022/08/12 04:43:57;;;;;;;11.93;10.82;;;16.20;99.90;;;;;;5000338;28;89834;-31
2022/08/12 04:46:24;;;;;;;13.00;11.70;;;16.20;99.90;;;;;;4999800;28;89952;-33
2022/08/12 04:48:50;;;;;;;11.10;10.10;;;16.20;99.90;;;;;;5000315;28;89617;-31
2022/08/12 04:51:17;;;;;;;10.48;9.48;;;16.30;99.90;;;;;;5000406;28;88471;-33
2022/08/12 04:53:44;;;;;;;12.20;10.50;;;16.30;99.90;;;;;;5000796;28;90070;-33
2022/08/12 04:56:09;;;;;;;12.57;9.63;;;16.30;99.90;;;;;;4999409;28;88788;-34
2022/08/12 04:58:36;;;;;;;13.88;9.95;;;16.40;99.90;;;;;;5000625;28;89655;-34
2022/08/12 05:01:02;;;;;;;10.52;9.32;;;16.40;99.90;;;;;;5000841;28;89812;-31
2022/08/12 05:03:28;;;;;;;10.50;9.48;;;16.60;99.90;;;;;;5000051;28;90824;-33
2022/08/12 05:05:56;;;;;;;11.32;9.60;;;16.70;99.90;;;;;;5000737;28;89681;-31
2022/08/12 05:08:22;;;;;;;11.88;9.25;;;16.90;99.90;;;;;;5000078;28;90149;-32
2022/08/12 05:10:48;;;;;;;11.93;9.18;;;17.10;99.90;;;;;;5000966;28;89991;-35
2022/08/12 05:13:28;;;;;;;10.60;9.48;;;17.30;99.90;;;;;;5000768;28;90250;-31
2022/08/12 05:15:53;;;;;;;12.40;10.15;;;17.30;99.90;;;;;;5000384;28;89844;-33
2022/08/12 05:18:20;;;;;;;13.00;10.30;;;17.30;99.90;;;;;;4999034;28;89982;-35
2022/08/12 05:20:47;;;;;;;14.45;8.77;;;17.30;99.90;;;;;;5000082;28;89301;-31
2022/08/12 05:23:18;;;;;;;9.95;8.85;;;17.40;99.90;;;;;;4999972;28;90633;-31
2022/08/12 05:25:45;;;;;;;10.48;8.68;;;17.40;99.90;;;;;;5000277;28;91765;-31
2022/08/12 05:28:12;;;;;;;12.50;10.85;;;17.40;99.90;;;;;;4999952;28;90514;-33
2022/08/12 05:30:40;;;;;;;10.07;9.18;;;17.50;99.90;;;;;;4999477;28;89977;-29
2022/08/12 05:33:06;;;;;;;15.87;9.50;;;17.50;99.90;;;;;;4999327;28;90282;-34
2022/08/12 05:35:40;;;;;;;11.10;8.75;;;17.50;99.90;;;;;;5000079;28;89896;-34
2022/08/12 05:40:51;;;;;;;10.05;9.05;;;17.60;99.90;;;;;;4999619;28;88987;-34
2022/08/12 05:43:17;;;;;;;12.38;9.15;;;17.60;99.90;;;;;;4999581;28;90477;-31
2022/08/12 05:45:44;;;;;;;11.80;9.95;;;17.70;99.90;;;;;;5000337;28;89633;-34
2022/08/12 05:48:10;;;;;;;10.07;8.50;;;17.80;99.90;;;;;;5000392;28;89969;-34
2022/08/12 05:50:36;;;;;;;10.20;8.75;;;17.80;99.90;;;;;;4999298;28;90368;-32
2022/08/12 05:53:02;;;;;;;9.55;8.63;;;17.90;99.90;;;;;;4999736;28;90307;-31
2022/08/12 05:55:30;;;;;;;11.23;8.98;;;18.00;99.90;;;;;;5000215;28;89766;-32
2022/08/12 05:57:56;;;;;;;9.07;8.07;;;18.00;99.90;;;;;;4999054;28;90824;-32
2022/08/12 06:00:24;;;;;;;10.32;7.82;;;18.10;99.90;;;;;;4999611;28;89333;-32
2022/08/12 06:02:59;;;;;;;8.77;7.88;;;18.10;99.90;;;;;;4999593;28;90055;-34
2022/08/12 06:05:33;;;;;;;9.45;7.70;;;18.10;99.90;;;;;;4999543;28;89501;-32
2022/08/12 06:07:59;;;;;;;13.25;8.20;;;18.20;99.90;;;;;;4999888;28;88521;-35
2022/08/12 06:10:24;;;;;;;12.38;9.07;;;18.20;99.90;;;;;;4999420;28;88911;-31
2022/08/12 06:12:50;;;;;;;10.88;8.75;;;18.30;99.90;;;;;;4999268;28;90327;-32
2022/08/12 06:15:17;;;;;;;8.77;7.63;;;18.40;99.90;;;;;;4999407;28;91026;-32
2022/08/12 06:17:43;;;;;;;9.48;8.57;;;18.40;99.90;;;;;;4999158;28;91148;-32
2022/08/12 06:20:12;;;;;;;9.30;7.95;;;18.40;99.90;;;;;;5000089;28;89424;-35
2022/08/12 06:22:39;;;;;;;10.15;8.60;;;18.40;99.90;;;;;;4993457;28;90014;-32
2022/08/12 06:25:05;;;;;;;12.27;8.77;;;18.50;99.90;;;;;;4997160;28;90037;-30
2022/08/12 06:27:31;;;;;;;9.93;8.90;;;18.60;99.90;;;;;;4996619;28;90172;-30
2022/08/12 06:29:57;;;;;;;11.27;7.97;;;18.60;99.90;;;;;;4997313;28;89778;-31
2022/08/12 06:32:23;;;;;;;12.27;7.20;;;18.70;99.90;;;;;;4996367;28;90336;-32
2022/08/12 06:34:49;;;;;;;9.00;8.15;;;18.70;99.90;;;;;;4994321;28;89109;-32
2022/08/12 06:37:16;;;;;;;9.07;8.18;;;18.80;99.90;;;;;;4996966;28;89647;-34
2022/08/12 06:39:42;;;;;;;11.93;8.43;;;18.90;99.90;;;;;;4997199;28;90354;-31
2022/08/12 06:44:52;;;;;;;9.85;8.90;;;19.10;99.90;;;;;;4997134;28;89479;-30
2022/08/12 06:47:18;;;;;;;10.70;8.57;;;19.20;99.90;;;;;;4996290;28;89511;-31
2022/08/12 06:49:44;;;;;;;12.98;9.23;;;19.30;99.90;;;;;;4999687;28;88619;-32
2022/08/12 06:52:09;;;;;;;21.75;8.43;;;19.40;99.90;;;;;;5000620;28;92004;-32
2022/08/12 06:54:35;;;;;;;10.38;9.30;;;19.60;99.90;;;;;;5000304;28;89113;-31
2022/08/12 06:57:01;;;;;;;8.60;7.72;;;19.70;99.90;;;;;;5001050;28;90202;-31
2022/08/12 06:59:26;;;;;;;10.20;9.15;;;20.00;99.90;;;;;;5002289;28;89635;-31
2022/08/12 07:01:53;;;;;;;8.82;7.75;;;20.20;99.90;;;;;;5002621;28;90720;-30
2022/08/12 07:04:20;;;;;;;8.63;7.63;;;20.40;99.90;;;;;;5000249;28;90524;-33
2022/08/12 07:06:45;;;;;;;7.95;7.15;;;20.70;99.90;;;;;;5001229;28;89595;-30
2022/08/12 07:09:13;;;;;;;10.20;7.25;;;21.00;99.90;;;;;;5001642;28;89392;-37
2022/08/12 07:11:43;;;;;;;8.55;7.10;;;21.20;99.90;;;;;;5001665;28;90232;-33
2022/08/12 07:14:08;;;;;;;9.05;6.68;;;21.50;99.90;;;;;;5002198;28;89740;-31
2022/08/12 07:16:52;;;;;;;9.55;7.35;;;21.70;99.90;;;;;;5001952;28;88790;-34
2022/08/12 07:19:19;;;;;;;9.27;8.30;;;21.80;99.90;;;;;;5002035;28;89450;-32
2022/08/12 07:21:46;;;;;;;8.95;7.30;;;22.00;99.90;;;;;;5001507;28;90134;-33
2022/08/12 07:24:13;;;;;;;7.10;6.40;;;22.10;99.90;;;;;;5001738;28;89392;-34
2022/08/12 07:26:40;;;;;;;7.20;5.95;;;22.30;99.90;;;;;;5001396;28;89647;-32
2022/08/12 07:29:09;;;;;;;8.13;7.05;;;22.50;99.90;;;;;;5001488;28;88320;-31
2022/08/12 07:31:36;;;;;;;7.43;6.55;;;22.70;99.90;;;;;;4988238;28;90325;-33
2022/08/12 07:34:04;;;;;;;7.32;6.63;;;22.80;99.90;;;;;;5001213;28;89853;-31
2022/08/12 07:36:29;;;;;;;6.50;5.90;;;23.00;99.90;;;;;;5002093;28;88965;-32
2022/08/12 07:38:55;;;;;;;8.88;6.32;;;23.20;99.90;;;;;;5002535;28;89587;-32
2022/08/12 07:41:24;;;;;;;7.68;6.68;;;23.30;99.90;;;;;;5001411;28;90235;-34
2022/08/12 07:43:58;;;;;;;7.07;6.38;;;23.40;99.90;;;;;;5001448;28;89917;-33
2022/08/12 07:46:31;;;;;;;13.98;6.93;;;23.60;99.90;;;;;;5001864;28;89987;-31
2022/08/12 07:49:00;;;;;;;7.25;5.88;;;23.80;99.90;;;;;;5002216;28;89290;-34
2022/08/12 07:51:27;;;;;;;6.68;6.10;;;24.00;99.90;;;;;;5001586;28;90017;-31
2022/08/12 07:53:54;;;;;;;6.10;5.55;;;24.20;99.90;;;;;;5000883;28;90802;-32
2022/08/12 07:56:20;;;;;;;5.70;5.25;;;24.40;99.90;;;;;;5000983;28;90481;-32
2022/08/12 07:58:45;;;;;;;7.07;6.20;;;24.60;99.90;;;;;;5001787;28;89319;-33
2022/08/12 08:01:20;;;;;;;5.63;5.13;;;24.90;99.90;;;;;;5001126;28;90254;-36
2022/08/12 08:06:35;;;;;;;8.20;6.80;;;25.10;99.90;;;;;;5001623;28;89339;-34
2022/08/12 08:09:03;;;;;;;11.77;5.75;;;25.30;99.90;;;;;;5001291;28;88080;-33
2022/08/12 08:14:13;;;;;;;5.82;5.18;;;25.40;99.90;;;;;;5000977;28;89689;-32
2022/08/12 08:16:40;;;;;;;7.80;5.20;;;25.60;99.90;;;;;;5001602;28;90590;-33
2022/08/12 08:19:06;;;;;;;8.83;5.53;;;25.70;99.90;;;;;;5000544;28;90444;-34
2022/08/12 08:21:34;;;;;;;5.80;4.97;;;25.70;99.90;;;;;;5000598;28;90124;-33
2022/08/12 08:24:15;;;;;;;4.78;4.45;;;25.90;99.90;;;;;;5001226;28;88764;-34
2022/08/12 08:26:52;;;;;;;6.45;5.85;;;26.00;99.90;;;;;;5001654;28;90449;-33
2022/08/12 08:29:20;;;;;;;6.22;4.82;;;26.20;99.90;;;;;;5001595;28;89286;-34
2022/08/12 08:31:52;;;;;;;6.80;5.63;;;26.30;99.90;;;;;;5001095;28;90416;-32
2022/08/12 08:34:19;;;;;;;7.90;5.18;;;26.50;99.90;;;;;;5000872;28;91330;-33
2022/08/12 08:36:44;;;;;;;6.82;6.25;;;26.50;99.90;;;;;;5000985;28;89697;-30
2022/08/12 08:39:12;;;;;;;6.65;6.10;;;26.60;99.90;;;;;;5001066;28;88636;-34
2022/08/12 08:44:23;;;;;;;5.90;5.32;;;26.90;99.20;;;;;;5000546;28;91854;-34
2022/08/12 08:46:49;;;;;;;6.43;5.15;;;26.80;99.80;;;;;;5000372;28;90515;-33
2022/08/12 08:49:16;;;;;;;5.72;4.90;;;26.70;98.90;;;;;;5001073;28;89145;-34
2022/08/12 08:51:43;;;;;;;6.80;5.07;;;26.90;99.90;;;;;;5001145;28;89930;-33
2022/08/12 08:54:11;;;;;;;6.03;4.80;;;27.00;99.90;;;;;;5000589;28;89494;-33
2022/08/12 08:56:48;;;;;;;9.98;4.78;;;27.20;97.40;;;;;;5000798;28;89445;-32
2022/08/12 08:59:15;;;;;;;14.13;5.07;;;27.40;93.10;;;;;;5001023;28;88705;-33
2022/08/12 09:01:42;;;;;;;6.53;4.78;;;27.50;93.70;;;;;;5001125;28;90501;-32
2022/08/12 09:04:09;;;;;;;10.60;4.78;;;27.70;91.50;;;;;;5000421;28;89441;-32
2022/08/12 09:06:35;;;;;;;5.20;4.80;;;27.70;91.00;;;;;;5000031;28;89533;-34
2022/08/12 09:09:04;;;;;;;4.90;4.40;;;27.80;89.10;;;;;;5000468;28;90539;-31
2022/08/12 09:14:14;;;;;;;6.28;5.65;;;27.90;89.20;;;;;;4999502;28;89263;-32
2022/08/12 09:16:40;;;;;;;9.98;4.70;;;28.00;86.50;;;;;;5001249;28;89203;-34
2022/08/12 09:19:12;;;;;;;10.15;4.35;;;28.20;82.60;;;;;;4999682;28;87708;-33
2022/08/12 09:21:38;;;;;;;7.05;4.32;;;28.30;79.60;;;;;;5000581;28;91093;-31
2022/08/12 09:24:06;;;;;;;5.15;4.60;;;28.40;81.10;;;;;;4999571;28;89483;-31
2022/08/12 09:26:32;;;;;;;;;;;28.50;79.00;;;;;;5000995;28;89642;-33
2022/08/12 09:28:58;;;;;;;7.47;5.30;;;28.70;75.80;;;;;;5002357;28;88206;-31
2022/08/12 09:31:24;;;;;;;11.02;4.10;;;28.70;75.90;;;;;;4999879;28;90686;-33
2022/08/12 09:33:50;;;;;;;6.43;4.95;;;28.70;71.50;;;;;;4999864;28;90643;-32
2022/08/12 09:36:20;;;;;;;5.07;4.15;;;28.70;69.90;;;;;;4999446;28;90462;-32
2022/08/12 09:38:45;;;;;;;4.32;3.92;;;28.80;70.30;;;;;;5000360;28;90194;-32
2022/08/12 09:41:14;;;;;;;4.45;4.13;;;28.90;67.60;;;;;;4999877;28;90292;-35
2022/08/12 09:46:26;;;;;;;4.63;4.28;;;29.00;64.30;;;;;;5000164;28;89549;-32
2022/08/12 09:48:52;;;;;;;4.72;4.35;;;29.10;66.00;;;;;;4999902;28;90156;-30
2022/08/12 09:51:18;;;;;;;4.75;4.22;;;29.20;62.90;;;;;;5000714;28;89810;-32
2022/08/12 09:53:45;;;;;;;6.27;5.13;;;29.30;62.40;;;;;;4999820;28;89697;-33
2022/08/12 09:56:16;;;;;;;8.45;5.13;;;29.40;59.90;;;;;;4999932;28;89628;-33
2022/08/12 09:58:45;;;;;;;8.80;4.88;;;29.50;60.20;;;;;;4998411;28;88768;-33
2022/08/12 10:01:11;;;;;;;11.95;4.20;;;29.60;59.70;;;;;;4999965;28;88964;-34
2022/08/12 10:03:37;;;;;;;4.47;4.13;;;29.70;59.90;;;;;;4999460;28;90605;-34
2022/08/12 10:06:05;;;;;;;8.27;4.05;;;29.90;56.60;;;;;;4999719;28;90837;-33
2022/08/12 10:08:32;;;;;;;3.95;3.65;;;30.00;54.30;;;;;;4999362;28;87791;-32
2022/08/12 10:13:51;;;;;;;5.65;3.97;;;30.10;53.30;;;;;;4999072;28;88580;-32
2022/08/12 10:16:32;;;;;;;5.28;4.40;;;30.10;52.80;;;;;;4999207;28;89421;-31
2022/08/12 10:19:02;;;;;;;5.63;3.75;;;30.20;52.40;;;;;;4999883;28;90032;-31
2022/08/12 10:21:35;;;;;;;4.15;3.80;;;30.20;51.60;;;;;;4997621;28;92325;-32
2022/08/12 10:24:03;;;;;;;5.50;4.32;;;30.40;51.20;;;;;;4999011;28;91588;-35
2022/08/12 10:31:59;;;;;;;4.45;4.15;;;30.60;50.00;;;;;;4999108;28;90181;-34
2022/08/12 10:34:25;;;;;;;5.65;4.20;;;30.60;51.30;;;;;;4999012;28;90031;-32
2022/08/12 10:36:57;;;;;;;14.77;4.07;;;30.60;48.00;;;;;;4998842;28;89438;-35
2022/08/12 10:39:44;;;;;;;4.55;3.97;;;30.60;49.50;;;;;;4998819;28;89876;-32
2022/08/12 10:45:05;;;;;;;8.05;3.80;;;30.40;49.90;;;;;;5000268;28;89398;-31
2022/08/12 10:47:32;;;;;;;5.32;3.97;;;30.50;48.80;;;;;;4998814;28;89679;-32
2022/08/12 10:49:58;;;;;;;3.80;3.50;;;30.60;48.30;;;;;;4998565;28;89522;-34
2022/08/12 10:52:25;;;;;;;8.02;4.82;;;30.60;47.80;;;;;;4999087;28;90951;-35
2022/08/12 10:54:54;;;;;;;6.13;4.00;;;30.70;48.90;;;;;;4999331;28;90049;-33
2022/08/12 10:57:22;;;;;;;9.52;4.15;;;30.60;47.70;;;;;;4998865;28;90360;-32
2022/08/12 10:59:47;;;;;;;5.30;4.38;;;30.50;48.00;;;;;;4998732;28;89908;-33
2022/08/12 11:02:14;;;;;;;6.68;4.43;;;30.50;48.00;;;;;;4998894;28;90350;-31
2022/08/12 11:04:40;;;;;;;4.57;4.28;;;30.40;48.30;;;;;;4999165;28;89685;-33
2022/08/12 11:07:07;;;;;;;5.18;4.15;;;30.40;47.80;;;;;;5000091;28;89844;-34
2022/08/12 11:09:34;;;;;;;6.53;3.40;;;30.30;47.70;;;;;;4998951;28;89091;-33
2022/08/12 11:12:05;;;;;;;4.07;3.53;;;30.30;48.50;;;;;;4999034;28;90166;-34
2022/08/12 11:14:35;;;;;;;5.15;4.70;;;30.30;47.60;;;;;;4998053;28;90285;-35
2022/08/12 11:17:06;;;;;;;9.20;4.32;;;30.40;48.40;;;;;;4998858;28;91532;-31
2022/08/12 11:19:34;;;;;;;4.20;3.75;;;30.50;48.30;;;;;;4998504;28;89060;-31
2022/08/12 11:22:00;;;;;;;3.80;3.50;;;30.40;46.90;;;;;;4998139;28;90273;-35
2022/08/12 11:24:26;;;;;;;4.50;4.20;;;30.40;47.80;;;;;;4998094;28;89778;-34
2022/08/12 11:26:53;;;;;;;6.50;4.82;;;30.40;47.50;;;;;;4998256;28;90238;-32
2022/08/12 11:29:24;;;;;;;4.17;3.77;;;30.40;47.10;;;;;;4998890;28;90200;-31
2022/08/12 11:31:49;;;;;;;9.38;5.10;;;30.60;47.30;;;;;;4999056;28;90429;-32
2022/08/12 11:34:16;;;;;;;4.43;4.10;;;30.60;47.60;;;;;;4998459;28;89742;-35
2022/08/12 11:36:56;;;;;;;4.95;4.28;;;30.60;46.00;;;;;;5001836;28;88305;-33
2022/08/12 11:39:22;;;;;;;5.40;4.28;;;30.60;47.20;;;;;;5001013;28;88731;-34
2022/08/12 11:41:48;;;;;;;7.40;4.50;;;30.50;47.50;;;;;;5001920;28;90669;-33
2022/08/12 11:44:15;;;;;;;4.32;3.92;;;30.60;48.00;;;;;;5001654;28;89992;-31
2022/08/12 11:46:41;;;;;;;4.40;3.72;;;30.60;47.40;;;;;;5000947;28;89164;-35
2022/08/12 11:49:08;;;;;;;4.40;3.90;;;30.50;47.70;;;;;;5001824;28;89380;-34
2022/08/12 11:51:35;;;;;;;5.10;4.13;;;30.50;47.60;;;;;;5001785;28;90439;-35
2022/08/12 11:54:00;;;;;;;4.22;3.92;;;30.60;48.00;;;;;;5001291;28;90329;-32
2022/08/12 11:56:27;;;;;;;6.72;3.92;;;30.70;46.30;;;;;;5001658;28;89509;-35
2022/08/12 11:58:53;;;;;;;4.07;3.73;;;30.80;47.40;;;;;;5001823;28;88560;-32
2022/08/12 12:01:18;;;;;;;4.03;3.72;;;30.90;45.90;;;;;;5000974;28;90212;-34
2022/08/12 12:03:44;;;;;;;5.65;4.20;;;30.90;45.70;;;;;;5001195;28;89889;-32
2022/08/12 12:06:10;;;;;;;7.20;3.67;;;30.80;45.70;;;;;;5001677;28;90402;-33
2022/08/12 12:08:35;;;;;;;3.42;3.22;;;30.70;47.20;;;;;;5000806;28;88721;-36
2022/08/12 12:11:01;;;;;;;3.85;3.55;;;30.60;47.50;;;;;;4999861;28;90055;-35
2022/08/12 12:13:27;;;;;;;3.78;3.53;;;30.70;47.90;;;;;;5000734;28;89700;-34
2022/08/12 12:15:53;;;;;;;4.80;4.13;;;30.70;46.50;;;;;;5001403;28;89751;-35
2022/08/12 12:18:26;;;;;;;4.45;3.17;;;30.70;46.00;;;;;;5001186;28;87491;-34
2022/08/12 12:20:54;;;;;;;6.70;4.57;;;30.80;44.70;;;;;;5001554;28;90741;-32
2022/08/12 12:23:19;;;;;;;5.18;4.68;;;30.80;45.40;;;;;;5036923;22;89817;-33
2022/08/12 12:25:45;;;;;;;5.78;3.25;;;30.70;46.60;;;;;;5001086;28;88543;-32
2022/08/12 12:28:12;;;;;;;4.03;3.63;;;30.70;43.90;;;;;;5001232;28;90370;-33
2022/08/12 12:30:38;;;;;;;4.00;3.70;;;30.60;43.60;;;;;;5001566;28;91086;-32
2022/08/12 12:33:05;;;;;;;4.78;4.35;;;30.60;44.90;;;;;;5000767;28;89651;-35
2022/08/12 12:35:31;;;;;;;4.43;4.03;;;30.60;44.60;;;;;;5000781;28;89104;-35
2022/08/12 12:38:01;;;;;;;4.40;4.00;;;30.60;44.60;;;;;;5000794;28;87977;-33
2022/08/12 12:40:29;;;;;;;4.60;4.10;;;30.70;45.10;;;;;;5000420;28;90141;-37
2022/08/12 12:42:55;;;;;;;4.85;3.38;;;30.80;44.50;;;;;;5001030;28;90212;-31
2022/08/12 12:45:21;;;;;;;8.75;4.38;;;30.70;44.70;;;;;;4999981;28;90493;-35
2022/08/12 12:47:54;;;;;;;4.05;3.72;;;30.60;44.20;;;;;;5000140;28;88409;-35
2022/08/12 12:50:21;;;;;;;4.07;3.78;;;30.50;44.90;;;;;;4987547;28;90295;-36
2022/08/12 12:52:46;;;;;;;3.97;3.55;;;30.60;44.50;;;;;;5000145;28;91909;-33
2022/08/12 12:55:15;;;;;;;4.75;3.95;;;30.60;44.40;;;;;;5000035;28;90067;-34
2022/08/12 12:57:41;;;;;;;4.13;3.83;;;30.70;42.90;;;;;;5000647;28;90095;-32
2022/08/12 13:00:14;;;;;;;5.03;4.53;;;30.60;43.50;;;;;;4999919;28;90028;-35
2022/08/12 13:02:56;;;;;;;3.45;3.25;;;30.60;44.10;;;;;;5000417;28;89336;-35
2022/08/12 13:05:33;;;;;;;4.97;4.13;;;30.70;44.30;;;;;;5000078;28;89576;-33
2022/08/12 13:08:00;;;;;;;4.38;3.97;;;30.70;44.40;;;;;;5000510;28;89367;-33
2022/08/12 13:10:29;;;;;;;4.53;3.67;;;30.70;43.80;;;;;;5000079;28;89641;-32
2022/08/12 13:12:55;;;;;;;;;;;30.60;43.90;;;;;;5001175;28;89167;-36
2022/08/12 13:15:21;;;;;;;4.95;4.43;;;30.60;43.30;;;;;;5001088;28;89255;-35
2022/08/12 13:17:49;;;;;;;6.32;4.57;;;30.50;45.20;;;;;;5000643;28;88722;-36
2022/08/12 13:20:17;;;;;;;8.13;4.68;;;30.70;44.70;;;;;;5000361;28;89759;-35
2022/08/12 13:22:43;;;;;;;4.80;4.50;;;30.70;44.80;;;;;;4999789;28;89780;-32
2022/08/12 13:25:10;;;;;;;5.10;4.80;;;30.70;45.70;;;;;;5000493;28;89771;-33
2022/08/12 13:27:40;;;;;;;5.10;4.45;;;30.80;46.60;;;;;;5000458;28;89184;-33
2022/08/12 13:30:09;;;;;;;4.50;4.15;;;30.90;44.00;;;;;;5000359;28;90929;-36
2022/08/12 13:32:36;;;;;;;4.75;4.35;;;30.90;44.30;;;;;;5000065;28;89448;-33
2022/08/12 13:35:05;;;;;;;5.47;4.47;;;30.90;45.20;;;;;;5000133;28;91150;-35
2022/08/12 13:37:31;;;;;;;5.53;4.43;;;30.90;45.10;;;;;;5000126;28;89353;-35
2022/08/12 13:39:56;;;;;;;5.57;5.10;;;30.80;43.70;;;;;;4999626;28;90348;-33
2022/08/12 13:42:22;;;;;;;5.15;4.75;;;30.70;44.40;;;;;;4999731;28;90281;-33
2022/08/12 13:44:51;;;;;;;7.57;4.20;;;30.70;44.90;;;;;;4999589;28;89289;-33
2022/08/12 13:47:20;;;;;;;4.38;3.97;;;30.70;45.10;;;;;;4999405;28;89967;-31
2022/08/12 13:49:47;;;;;;;4.63;4.30;;;30.80;44.70;;;;;;4999518;28;90393;-34
2022/08/12 13:52:14;;;;;;;5.82;5.32;;;30.70;44.60;;;;;;5000086;28;88815;-31
2022/08/12 13:54:39;;;;;;;9.00;5.15;;;30.70;45.20;;;;;;5000187;28;90834;-33
2022/08/12 13:57:05;;;;;;;7.32;4.28;;;30.70;45.20;;;;;;4998845;28;88199;-33
2022/08/12 13:59:32;;;;;;;4.53;4.18;;;30.70;45.30;;;;;;4999724;28;90125;-35
2022/08/12 14:01:58;;;;;;;4.55;4.15;;;30.60;45.10;;;;;;4999628;28;89718;-35
2022/08/12 14:04:24;;;;;;;4.50;4.20;;;30.70;44.70;;;;;;4999206;28;89594;-35
2022/08/12 14:06:50;;;;;;;10.63;5.20;;;30.70;44.60;;;;;;4999722;28;89874;-33
2022/08/12 14:09:15;;;;;;;4.35;4.05;;;30.80;45.30;;;;;;4999241;28;89921;-35
2022/08/12 14:11:43;;;;;;;4.78;4.10;;;30.80;45.80;;;;;;4999719;28;90521;-34
2022/08/12 14:14:09;;;;;;;5.32;4.80;;;30.90;43.90;;;;;;4999789;28;90918;-34
2022/08/12 14:16:35;;;;;;;4.95;4.45;;;30.90;44.30;;;;;;4999303;28;90154;-33
2022/08/12 14:19:00;;;;;;;4.38;3.95;;;30.80;44.00;;;;;;4999765;28;90763;-34
2022/08/12 14:21:27;;;;;;;4.22;3.88;;;30.70;43.80;;;;;;4999218;28;90028;-33
2022/08/12 14:23:53;;;;;;;5.13;4.73;;;30.60;44.50;;;;;;4997301;28;89650;-37
2022/08/12 14:26:25;;;;;;;4.25;3.83;;;30.60;45.70;;;;;;4998325;28;89256;-32
2022/08/12 14:28:54;;;;;;;4.43;4.05;;;30.70;44.50;;;;;;4998437;28;90627;-33
2022/08/12 14:31:20;;;;;;;4.32;4.03;;;30.70;45.40;;;;;;4997272;28;91382;-34
2022/08/12 14:33:51;;;;;;;5.65;4.40;;;30.80;45.40;;;;;;4997689;28;90602;-33
2022/08/12 14:36:22;;;;;;;5.10;4.47;;;30.80;44.10;;;;;;4998089;28;88921;-33
2022/08/12 14:38:49;;;;;;;5.35;4.85;;;30.80;44.00;;;;;;4997901;28;90109;-35
2022/08/12 14:41:21;;;;;;;4.85;4.53;;;30.70;43.50;;;;;;4997219;28;89778;-34
2022/08/12 14:43:49;;;;;;;4.28;3.95;;;30.80;43.40;;;;;;4997918;28;89793;-33
2022/08/12 14:46:21;;;;;;;5.72;4.82;;;30.80;43.30;;;;;;4998127;28;88340;-36